sensor_id;sensor_type;location;lat;lon;timestamp;temperature;humidity
40816;DHT22;26535;48.788;9.214;2024-02-21T00:00:47;7.00;99.90
40816;DHT22;26535;48.788;9.214;2024-02-21T00:03:13;7.00;99.90
40816;DHT22;26535;48.788;9.214;2024-02-21T00:05:38;7.00;99.90
40816;DHT22;26535;48.788;9.214;2024-02-21T00:08:04;7.00;99.90
40816;DHT22;26535;48.788;9.214;2024-02-21T00:10:30;7.00;99.90
40816;DHT22;26535;48.788;9.214;2024-02-21T00:12:58;7.00;99.90
40816;DHT22;26535;48.788;9.214;2024-02-21T00:15:25;7.00;99.90
40816;DHT22;26535;48.788;9.214;2024-02-21T05:53:30;5.70;99.90
40816;DHT22;26535;48.788;9.214;2024-02-21T05:55:57;5.70;99.90
40816;DHT22;26535;48.788;9.214;2024-02-21T05:58:22;5.70;99.90
40816;DHT22;26535;48.788;9.214;2024-02-21T06:00:48;5.60;99.90
40816;DHT22;26535;48.788;9.214;2024-02-21T06:03:13;5.60;99.90
40816;DHT22;26535;48.788;9.214;2024-02-21T06:05:39;5.50;99.90
40816;DHT22;26535;48.788;9.214;2024-02-21T06:08:05;5.40;99.90
40816;DHT22;26535;48.788;9.214;2024-02-21T06:10:31;5.40;99.90
40816;DHT22;26535;48.788;9.214;2024-02-21T06:12:59;5.30;99.90
40816;DHT22;26535;48.788;9.214;2024-02-21T06:15:25;5.30;99.90
40816;DHT22;26535;48.788;9.214;2024-02-21T06:17:51;5.20;99.90
40816;DHT22;26535;48.788;9.214;2024-02-21T06:20:16;5.40;99.90
40816;DHT22;26535;48.788;9.214;2024-02-21T06:22:42;5.70;99.90
40816;DHT22;26535;48.788;9.214;2024-02-21T06:25:08;5.70;99.90
40816;DHT22;26535;48.788;9.214;2024-02-21T06:27:34;5.70;99.90
40816;DHT22;26535;48.788;9.214;2024-02-21T06:29:59;5.80;99.90
40816;DHT22;26535;48.788;9.214;2024-02-21T06:32:25;5.90;99.90
40816;DHT22;26535;48.788;9.214;2024-02-21T06:34:51;5.80;99.90
40816;DHT22;26535;48.788;9.214;2024-02-21T06:37:16;5.80;99.90
40816;DHT22;26535;48.788;9.214;2024-02-21T06:39:42;5.90;99.90
40816;DHT22;26535;48.788;9.214;2024-02-21T06:42:08;5.90;99.90
40816;DHT22;26535;48.788;9.214;2024-02-21T06:44:34;6.00;99.90
40816;DHT22;26535;48.788;9.214;2024-02-21T06:47:06;6.10;99.90
40816;DHT22;26535;48.788;9.214;2024-02-21T06:49:34;6.10;99.90
40816;DHT22;26535;48.788;9.214;2024-02-21T06:52:00;6.10;99.90
40816;DHT22;26535;48.788;9.214;2024-02-21T06:54:25;6.10;99.90
40816;DHT22;26535;48.788;9.214;2024-02-21T06:56:51;6.10;99.90
40816;DHT22;26535;48.788;9.214;2024-02-21T06:59:17;6.10;99.90
40816;DHT22;26535;48.788;9.214;2024-02-21T07:01:49;6.20;99.90
40816;DHT22;26535;48.788;9.214;2024-02-21T07:04:15;6.20;99.90
40816;DHT22;26535;48.788;9.214;2024-02-21T07:06:41;6.30;99.90
40816;DHT22;26535;48.788;9.214;2024-02-21T07:09:06;6.50;99.50
40816;DHT22;26535;48.788;9.214;2024-02-21T07:11:32;6.70;99.10
40816;DHT22;26535;48.788;9.214;2024-02-21T07:13:58;6.80;98.90
40816;DHT22;26535;48.788;9.214;2024-02-21T07:16:23;6.90;98.50
40816;DHT22;26535;48.788;9.214;2024-02-21T07:18:49;7.00;98.50
40816;DHT22;26535;48.788;9.214;2024-02-21T07:21:15;7.00;98.30
40816;DHT22;26535;48.788;9.214;2024-02-21T07:23:43;7.10;98.10
40816;DHT22;26535;48.788;9.214;2024-02-21T07:26:09;7.20;98.00
40816;DHT22;26535;48.788;9.214;2024-02-21T07:28:35;7.30;98.30
40816;DHT22;26535;48.788;9.214;2024-02-21T07:31:00;7.40;98.70
40816;DHT22;26535;48.788;9.214;2024-02-21T07:33:26;7.50;98.60
40816;DHT22;26535;48.788;9.214;2024-02-21T07:35:52;7.60;98.60
40816;DHT22;26535;48.788;9.214;2024-02-21T07:38:17;7.80;98.00
40816;DHT22;26535;48.788;9.214;2024-02-21T07:40:46;7.90;97.70
40816;DHT22;26535;48.788;9.214;2024-02-21T07:43:12;8.00;97.60
40816;DHT22;26535;48.788;9.214;2024-02-21T07:45:38;8.10;97.60
40816;DHT22;26535;48.788;9.214;2024-02-21T07:48:07;8.20;96.10
40816;DHT22;26535;48.788;9.214;2024-02-21T07:50:33;8.30;95.80
40816;DHT22;26535;48.788;9.214;2024-02-21T07:53:02;8.40;95.00
40816;DHT22;26535;48.788;9.214;2024-02-21T07:55:28;8.60;94.90
40816;DHT22;26535;48.788;9.214;2024-02-21T07:57:54;8.60;94.80
40816;DHT22;26535;48.788;9.214;2024-02-21T08:00:20;8.70;94.90
40816;DHT22;26535;48.788;9.214;2024-02-21T08:02:53;8.80;94.70
40816;DHT22;26535;48.788;9.214;2024-02-21T08:05:42;8.90;94.30
40816;DHT22;26535;48.788;9.214;2024-02-21T08:08:07;8.90;93.80
40816;DHT22;26535;48.788;9.214;2024-02-21T08:10:34;9.00;93.70
40816;DHT22;26535;48.788;9.214;2024-02-21T08:12:59;9.10;93.30
40816;DHT22;26535;48.788;9.214;2024-02-21T08:15:25;9.20;93.40
40816;DHT22;26535;48.788;9.214;2024-02-21T08:17:55;9.20;93.50
40816;DHT22;26535;48.788;9.214;2024-02-21T08:20:27;9.30;93.50
40816;DHT22;26535;48.788;9.214;2024-02-21T08:22:52;9.50;93.10
40816;DHT22;26535;48.788;9.214;2024-02-21T08:25:18;9.70;92.90
40816;DHT22;26535;48.788;9.214;2024-02-21T08:27:44;9.80;92.60
40816;DHT22;26535;48.788;9.214;2024-02-21T08:30:14;9.70;92.50
40816;DHT22;26535;48.788;9.214;2024-02-21T08:32:40;9.70;92.60
40816;DHT22;26535;48.788;9.214;2024-02-21T08:35:06;9.80;92.50
40816;DHT22;26535;48.788;9.214;2024-02-21T08:37:31;9.80;92.50
40816;DHT22;26535;48.788;9.214;2024-02-21T08:39:57;9.90;92.50
40816;DHT22;26535;48.788;9.214;2024-02-21T08:42:23;9.90;92.70
40816;DHT22;26535;48.788;9.214;2024-02-21T08:44:48;9.80;92.50
40816;DHT22;26535;48.788;9.214;2024-02-21T08:47:14;9.80;92.60
40816;DHT22;26535;48.788;9.214;2024-02-21T08:49:40;9.90;92.70
40816;DHT22;26535;48.788;9.214;2024-02-21T08:52:06;10.00;92.50
40816;DHT22;26535;48.788;9.214;2024-02-21T08:54:32;10.10;92.00
40816;DHT22;26535;48.788;9.214;2024-02-21T08:57:00;10.10;91.80
40816;DHT22;26535;48.788;9.214;2024-02-21T08:59:26;10.10;91.90
40816;DHT22;26535;48.788;9.214;2024-02-21T09:01:52;10.10;91.80
40816;DHT22;26535;48.788;9.214;2024-02-21T09:04:18;10.10;91.90
40816;DHT22;26535;48.788;9.214;2024-02-21T09:06:45;10.20;91.80
40816;DHT22;26535;48.788;9.214;2024-02-21T09:09:12;10.40;91.20
40816;DHT22;26535;48.788;9.214;2024-02-21T09:11:38;10.50;91.10
40816;DHT22;26535;48.788;9.214;2024-02-21T09:14:05;10.50;91.00
40816;DHT22;26535;48.788;9.214;2024-02-21T09:16:32;10.60;90.40
40816;DHT22;26535;48.788;9.214;2024-02-21T09:18:58;10.70;90.60
40816;DHT22;26535;48.788;9.214;2024-02-21T09:21:24;10.70;90.50
40816;DHT22;26535;48.788;9.214;2024-02-21T09:23:49;10.70;90.20
40816;DHT22;26535;48.788;9.214;2024-02-21T09:26:15;10.80;90.20
40816;DHT22;26535;48.788;9.214;2024-02-21T09:28:43;10.90;90.10
40816;DHT22;26535;48.788;9.214;2024-02-21T09:31:09;10.80;89.90
40816;DHT22;26535;48.788;9.214;2024-02-21T09:33:35;10.80;90.20
40816;DHT22;26535;48.788;9.214;2024-02-21T09:36:01;10.70;90.10
40816;DHT22;26535;48.788;9.214;2024-02-21T09:38:26;10.90;90.30
40816;DHT22;26535;48.788;9.214;2024-02-21T09:41:08;10.90;90.20
40816;DHT22;26535;48.788;9.214;2024-02-21T09:43:37;11.10;89.50
40816;DHT22;26535;48.788;9.214;2024-02-21T09:46:04;11.00;89.00
40816;DHT22;26535;48.788;9.214;2024-02-21T09:48:57;11.00;89.10
40816;DHT22;26535;48.788;9.214;2024-02-21T09:51:30;11.00;88.90
40816;DHT22;26535;48.788;9.214;2024-02-21T09:53:58;11.20;89.00
40816;DHT22;26535;48.788;9.214;2024-02-21T09:56:24;11.50;88.10
40816;DHT22;26535;48.788;9.214;2024-02-21T09:58:50;11.60;85.40
40816;DHT22;26535;48.788;9.214;2024-02-21T10:01:16;11.80;85.50
40816;DHT22;26535;48.788;9.214;2024-02-21T10:03:42;12.00;84.00
40816;DHT22;26535;48.788;9.214;2024-02-21T10:06:09;12.00;84.40
40816;DHT22;26535;48.788;9.214;2024-02-21T10:08:35;12.00;84.10
40816;DHT22;26535;48.788;9.214;2024-02-21T10:11:00;12.00;84.00
40816;DHT22;26535;48.788;9.214;2024-02-21T10:13:31;12.20;83.10
40816;DHT22;26535;48.788;9.214;2024-02-21T10:16:03;12.40;82.80
40816;DHT22;26535;48.788;9.214;2024-02-21T10:18:29;12.50;82.10
40816;DHT22;26535;48.788;9.214;2024-02-21T10:23:27;12.40;81.30
40816;DHT22;26535;48.788;9.214;2024-02-21T10:25:52;12.30;81.40
40816;DHT22;26535;48.788;9.214;2024-02-21T10:28:18;12.30;81.90
40816;DHT22;26535;48.788;9.214;2024-02-21T10:30:51;12.50;81.70
40816;DHT22;26535;48.788;9.214;2024-02-21T10:33:18;12.60;80.70
40816;DHT22;26535;48.788;9.214;2024-02-21T10:35:50;12.80;79.90
40816;DHT22;26535;48.788;9.214;2024-02-21T10:38:15;12.90;79.20
40816;DHT22;26535;48.788;9.214;2024-02-21T10:40:41;13.10;79.30
40816;DHT22;26535;48.788;9.214;2024-02-21T10:43:13;13.30;78.00
40816;DHT22;26535;48.788;9.214;2024-02-21T10:45:41;13.40;77.30
40816;DHT22;26535;48.788;9.214;2024-02-21T10:50:41;13.40;77.70
40816;DHT22;26535;48.788;9.214;2024-02-21T10:53:24;13.40;77.20
40816;DHT22;26535;48.788;9.214;2024-02-21T10:56:31;13.20;77.60
40816;DHT22;26535;48.788;9.214;2024-02-21T10:58:58;13.20;77.70
40816;DHT22;26535;48.788;9.214;2024-02-21T11:01:26;13.30;76.50
40816;DHT22;26535;48.788;9.214;2024-02-21T11:03:54;13.30;77.20
40816;DHT22;26535;48.788;9.214;2024-02-21T11:06:21;13.50;77.40
40816;DHT22;26535;48.788;9.214;2024-02-21T11:08:48;13.50;77.10
40816;DHT22;26535;48.788;9.214;2024-02-21T11:11:24;13.70;77.40
40816;DHT22;26535;48.788;9.214;2024-02-21T11:13:49;13.60;76.40
40816;DHT22;26535;48.788;9.214;2024-02-21T11:16:22;13.70;76.10
40816;DHT22;26535;48.788;9.214;2024-02-21T11:18:48;13.80;75.60
40816;DHT22;26535;48.788;9.214;2024-02-21T11:21:15;13.70;75.40
40816;DHT22;26535;48.788;9.214;2024-02-21T11:23:41;13.60;75.20
40816;DHT22;26535;48.788;9.214;2024-02-21T11:26:10;13.80;75.70
40816;DHT22;26535;48.788;9.214;2024-02-21T11:28:36;14.00;74.80
40816;DHT22;26535;48.788;9.214;2024-02-21T11:31:13;14.10;74.30
40816;DHT22;26535;48.788;9.214;2024-02-21T11:33:42;14.00;74.60
40816;DHT22;26535;48.788;9.214;2024-02-21T11:36:09;14.00;73.90
40816;DHT22;26535;48.788;9.214;2024-02-21T11:38:35;14.10;74.20
40816;DHT22;26535;48.788;9.214;2024-02-21T11:41:01;14.20;73.20
40816;DHT22;26535;48.788;9.214;2024-02-21T11:43:27;14.30;73.40
40816;DHT22;26535;48.788;9.214;2024-02-21T11:46:11;14.60;74.00
40816;DHT22;26535;48.788;9.214;2024-02-21T11:48:37;14.60;73.00
40816;DHT22;26535;48.788;9.214;2024-02-21T11:51:03;14.80;72.10
40816;DHT22;26535;48.788;9.214;2024-02-21T11:53:31;14.90;71.40
40816;DHT22;26535;48.788;9.214;2024-02-21T11:55:57;15.00;70.00
40816;DHT22;26535;48.788;9.214;2024-02-21T11:58:23;14.90;70.00
40816;DHT22;26535;48.788;9.214;2024-02-21T12:00:48;14.90;70.70
40816;DHT22;26535;48.788;9.214;2024-02-21T12:03:14;15.30;69.80
40816;DHT22;26535;48.788;9.214;2024-02-21T12:05:41;15.50;68.70
40816;DHT22;26535;48.788;9.214;2024-02-21T12:08:07;15.60;69.20
40816;DHT22;26535;48.788;9.214;2024-02-21T12:10:36;15.50;68.30
40816;DHT22;26535;48.788;9.214;2024-02-21T12:13:06;15.60;67.60
40816;DHT22;26535;48.788;9.214;2024-02-21T12:15:32;15.60;67.50
40816;DHT22;26535;48.788;9.214;2024-02-21T12:17:58;16.00;65.90
40816;DHT22;26535;48.788;9.214;2024-02-21T12:20:25;15.70;65.90
40816;DHT22;26535;48.788;9.214;2024-02-21T12:22:51;15.60;66.70
40816;DHT22;26535;48.788;9.214;2024-02-21T12:25:19;15.90;65.40
40816;DHT22;26535;48.788;9.214;2024-02-21T12:27:46;16.10;67.20
40816;DHT22;26535;48.788;9.214;2024-02-21T12:30:12;16.20;64.50
40816;DHT22;26535;48.788;9.214;2024-02-21T12:32:37;16.00;63.90
40816;DHT22;26535;48.788;9.214;2024-02-21T12:35:04;16.10;64.90
40816;DHT22;26535;48.788;9.214;2024-02-21T12:37:29;16.00;64.40
40816;DHT22;26535;48.788;9.214;2024-02-21T12:39:55;16.50;64.00
40816;DHT22;26535;48.788;9.214;2024-02-21T12:42:21;16.30;63.80
40816;DHT22;26535;48.788;9.214;2024-02-21T12:44:49;16.30;63.10
40816;DHT22;26535;48.788;9.214;2024-02-21T12:47:14;16.50;62.90
40816;DHT22;26535;48.788;9.214;2024-02-21T12:49:40;16.40;62.50
40816;DHT22;26535;48.788;9.214;2024-02-21T12:52:06;16.40;62.80
40816;DHT22;26535;48.788;9.214;2024-02-21T12:54:32;16.70;62.90
40816;DHT22;26535;48.788;9.214;2024-02-21T12:56:59;16.70;62.30
40816;DHT22;26535;48.788;9.214;2024-02-21T12:59:28;16.60;61.30
40816;DHT22;26535;48.788;9.214;2024-02-21T13:01:54;16.20;62.10
40816;DHT22;26535;48.788;9.214;2024-02-21T13:04:20;16.30;62.80
40816;DHT22;26535;48.788;9.214;2024-02-21T13:06:48;16.20;62.80
40816;DHT22;26535;48.788;9.214;2024-02-21T13:09:14;16.20;62.60
40816;DHT22;26535;48.788;9.214;2024-02-21T13:11:41;16.40;61.40
40816;DHT22;26535;48.788;9.214;2024-02-21T13:14:07;16.30;62.20
40816;DHT22;26535;48.788;9.214;2024-02-21T13:16:33;16.20;61.50
40816;DHT22;26535;48.788;9.214;2024-02-21T13:19:06;16.10;63.30
40816;DHT22;26535;48.788;9.214;2024-02-21T13:21:31;15.90;62.90
40816;DHT22;26535;48.788;9.214;2024-02-21T13:23:57;15.90;61.80
40816;DHT22;26535;48.788;9.214;2024-02-21T13:26:23;15.80;62.40
40816;DHT22;26535;48.788;9.214;2024-02-21T13:28:48;16.30;61.40
40816;DHT22;26535;48.788;9.214;2024-02-21T13:31:14;16.30;60.90
40816;DHT22;26535;48.788;9.214;2024-02-21T13:33:42;16.00;61.50
40816;DHT22;26535;48.788;9.214;2024-02-21T13:36:10;15.90;61.60
40816;DHT22;26535;48.788;9.214;2024-02-21T13:38:36;15.90;61.20
40816;DHT22;26535;48.788;9.214;2024-02-21T13:41:01;16.10;61.70
40816;DHT22;26535;48.788;9.214;2024-02-21T13:43:27;16.00;61.60
40816;DHT22;26535;48.788;9.214;2024-02-21T13:46:00;16.10;61.40
40816;DHT22;26535;48.788;9.214;2024-02-21T13:48:31;16.10;61.20
40816;DHT22;26535;48.788;9.214;2024-02-21T13:50:58;16.00;61.00
40816;DHT22;26535;48.788;9.214;2024-02-21T13:53:24;15.90;59.90
40816;DHT22;26535;48.788;9.214;2024-02-21T13:55:50;15.60;60.80
40816;DHT22;26535;48.788;9.214;2024-02-21T13:58:16;15.80;61.50
40816;DHT22;26535;48.788;9.214;2024-02-21T14:00:41;15.70;60.90
40816;DHT22;26535;48.788;9.214;2024-02-21T14:03:07;15.80;61.20
40816;DHT22;26535;48.788;9.214;2024-02-21T14:05:33;15.70;61.00
40816;DHT22;26535;48.788;9.214;2024-02-21T14:07:59;15.50;60.70
40816;DHT22;26535;48.788;9.214;2024-02-21T14:10:25;15.50;61.60
40816;DHT22;26535;48.788;9.214;2024-02-21T14:12:50;15.40;60.50
40816;DHT22;26535;48.788;9.214;2024-02-21T14:15:16;15.40;61.10
40816;DHT22;26535;48.788;9.214;2024-02-21T14:17:42;15.30;61.60
40816;DHT22;26535;48.788;9.214;2024-02-21T14:20:08;15.20;61.50
40816;DHT22;26535;48.788;9.214;2024-02-21T14:22:34;15.20;62.30
40816;DHT22;26535;48.788;9.214;2024-02-21T14:25:03;15.20;61.90
40816;DHT22;26535;48.788;9.214;2024-02-21T14:27:31;15.20;62.10
40816;DHT22;26535;48.788;9.214;2024-02-21T14:29:57;15.20;63.10
40816;DHT22;26535;48.788;9.214;2024-02-21T14:32:22;15.10;62.80
40816;DHT22;26535;48.788;9.214;2024-02-21T14:34:48;15.20;64.80
40816;DHT22;26535;48.788;9.214;2024-02-21T14:37:14;15.30;62.90
40816;DHT22;26535;48.788;9.214;2024-02-21T14:39:41;15.20;62.10
40816;DHT22;26535;48.788;9.214;2024-02-21T14:42:07;15.20;62.20
40816;DHT22;26535;48.788;9.214;2024-02-21T14:44:35;15.20;62.00
40816;DHT22;26535;48.788;9.214;2024-02-21T14:47:02;15.20;62.70
40816;DHT22;26535;48.788;9.214;2024-02-21T14:49:30;15.30;60.90
40816;DHT22;26535;48.788;9.214;2024-02-21T14:51:56;15.20;62.70
40816;DHT22;26535;48.788;9.214;2024-02-21T14:54:22;15.20;62.30
40816;DHT22;26535;48.788;9.214;2024-02-21T14:56:49;15.10;61.90
40816;DHT22;26535;48.788;9.214;2024-02-21T14:59:15;15.10;63.40
40816;DHT22;26535;48.788;9.214;2024-02-21T15:01:44;14.90;63.30
40816;DHT22;26535;48.788;9.214;2024-02-21T15:04:10;14.90;63.80
40816;DHT22;26535;48.788;9.214;2024-02-21T15:06:35;14.70;64.10
40816;DHT22;26535;48.788;9.214;2024-02-21T15:09:04;14.70;64.80
40816;DHT22;26535;48.788;9.214;2024-02-21T15:11:32;14.70;63.40
40816;DHT22;26535;48.788;9.214;2024-02-21T15:13:58;14.70;61.50
40816;DHT22;26535;48.788;9.214;2024-02-21T15:16:24;14.80;62.80
40816;DHT22;26535;48.788;9.214;2024-02-21T15:18:50;14.80;63.70
40816;DHT22;26535;48.788;9.214;2024-02-21T15:21:16;14.80;62.10
40816;DHT22;26535;48.788;9.214;2024-02-21T15:23:42;14.70;62.30
40816;DHT22;26535;48.788;9.214;2024-02-21T15:26:07;14.60;63.50
40816;DHT22;26535;48.788;9.214;2024-02-21T15:28:33;14.60;63.90
40816;DHT22;26535;48.788;9.214;2024-02-21T15:30:59;14.50;64.80
40816;DHT22;26535;48.788;9.214;2024-02-21T15:33:25;14.60;66.00
40816;DHT22;26535;48.788;9.214;2024-02-21T15:35:52;14.50;65.70
40816;DHT22;26535;48.788;9.214;2024-02-21T15:38:19;14.60;66.00
40816;DHT22;26535;48.788;9.214;2024-02-21T15:40:45;14.50;66.80
40816;DHT22;26535;48.788;9.214;2024-02-21T15:43:11;14.60;66.80
40816;DHT22;26535;48.788;9.214;2024-02-21T15:45:36;14.70;67.20
40816;DHT22;26535;48.788;9.214;2024-02-21T15:48:06;14.60;67.70
40816;DHT22;26535;48.788;9.214;2024-02-21T15:50:32;14.50;68.50
40816;DHT22;26535;48.788;9.214;2024-02-21T15:52:58;14.40;69.40
40816;DHT22;26535;48.788;9.214;2024-02-21T15:55:24;14.30;70.60
40816;DHT22;26535;48.788;9.214;2024-02-21T15:57:50;14.20;70.20
40816;DHT22;26535;48.788;9.214;2024-02-21T16:00:16;14.10;70.60
40816;DHT22;26535;48.788;9.214;2024-02-21T16:02:41;14.00;71.10
40816;DHT22;26535;48.788;9.214;2024-02-21T16:05:08;14.00;71.60
40816;DHT22;26535;48.788;9.214;2024-02-21T16:07:38;13.90;71.80
40816;DHT22;26535;48.788;9.214;2024-02-21T16:10:05;13.80;71.80
40816;DHT22;26535;48.788;9.214;2024-02-21T16:12:31;13.80;72.70
40816;DHT22;26535;48.788;9.214;2024-02-21T16:14:57;13.70;72.80
40816;DHT22;26535;48.788;9.214;2024-02-21T16:17:23;13.60;73.20
40816;DHT22;26535;48.788;9.214;2024-02-21T16:19:50;13.50;73.60
40816;DHT22;26535;48.788;9.214;2024-02-21T16:22:16;13.50;74.20
40816;DHT22;26535;48.788;9.214;2024-02-21T16:24:41;13.40;74.40
40816;DHT22;26535;48.788;9.214;2024-02-21T16:27:16;13.30;75.00
40816;DHT22;26535;48.788;9.214;2024-02-21T16:29:48;13.20;75.30
40816;DHT22;26535;48.788;9.214;2024-02-21T16:32:13;13.10;75.90
40816;DHT22;26535;48.788;9.214;2024-02-21T16:34:40;13.10;76.20
40816;DHT22;26535;48.788;9.214;2024-02-21T16:37:06;13.00;76.50
40816;DHT22;26535;48.788;9.214;2024-02-21T16:39:32;12.90;77.10
40816;DHT22;26535;48.788;9.214;2024-02-21T16:41:58;12.90;77.50
40816;DHT22;26535;48.788;9.214;2024-02-21T16:44:28;12.80;78.20
40816;DHT22;26535;48.788;9.214;2024-02-21T16:46:54;12.70;78.40
40816;DHT22;26535;48.788;9.214;2024-02-21T16:49:21;12.70;79.20
40816;DHT22;26535;48.788;9.214;2024-02-21T16:51:46;12.60;79.80
40816;DHT22;26535;48.788;9.214;2024-02-21T16:54:12;12.60;80.30
40816;DHT22;26535;48.788;9.214;2024-02-21T16:56:37;12.50;80.50
40816;DHT22;26535;48.788;9.214;2024-02-21T16:59:04;12.50;80.80
40816;DHT22;26535;48.788;9.214;2024-02-21T17:01:36;12.40;81.00
40816;DHT22;26535;48.788;9.214;2024-02-21T17:04:06;12.40;81.20
40816;DHT22;26535;48.788;9.214;2024-02-21T17:06:35;12.40;81.70
40816;DHT22;26535;48.788;9.214;2024-02-21T17:09:02;12.40;81.60
40816;DHT22;26535;48.788;9.214;2024-02-21T17:11:28;12.30;81.80
40816;DHT22;26535;48.788;9.214;2024-02-21T17:13:55;12.30;81.90
40816;DHT22;26535;48.788;9.214;2024-02-21T17:16:20;12.30;82.10
40816;DHT22;26535;48.788;9.214;2024-02-21T17:18:46;12.20;82.60
40816;DHT22;26535;48.788;9.214;2024-02-21T17:21:13;12.20;83.10
40816;DHT22;26535;48.788;9.214;2024-02-21T17:23:39;12.10;83.30
40816;DHT22;26535;48.788;9.214;2024-02-21T17:26:05;12.10;83.70
40816;DHT22;26535;48.788;9.214;2024-02-21T17:28:31;12.10;83.90
40816;DHT22;26535;48.788;9.214;2024-02-21T17:30:57;12.00;83.60
40816;DHT22;26535;48.788;9.214;2024-02-21T17:33:23;12.00;84.00
40816;DHT22;26535;48.788;9.214;2024-02-21T17:35:49;11.90;84.20
40816;DHT22;26535;48.788;9.214;2024-02-21T17:38:16;11.90;84.30
40816;DHT22;26535;48.788;9.214;2024-02-21T17:40:44;11.80;85.70
40816;DHT22;26535;48.788;9.214;2024-02-21T17:43:10;11.80;84.70
40816;DHT22;26535;48.788;9.214;2024-02-21T17:45:37;11.80;85.20
40816;DHT22;26535;48.788;9.214;2024-02-21T17:48:06;11.80;85.20
40816;DHT22;26535;48.788;9.214;2024-02-21T17:50:31;11.80;85.00
40816;DHT22;26535;48.788;9.214;2024-02-21T17:52:57;11.70;85.00
40816;DHT22;26535;48.788;9.214;2024-02-21T17:55:23;11.70;84.90
40816;DHT22;26535;48.788;9.214;2024-02-21T17:57:49;11.70;85.00
40816;DHT22;26535;48.788;9.214;2024-02-21T18:00:15;11.70;85.80
40816;DHT22;26535;48.788;9.214;2024-02-21T18:02:41;11.70;85.70
40816;DHT22;26535;48.788;9.214;2024-02-21T18:05:07;11.60;85.90
40816;DHT22;26535;48.788;9.214;2024-02-21T18:07:33;11.60;86.00
40816;DHT22;26535;48.788;9.214;2024-02-21T18:09:59;11.60;86.20
40816;DHT22;26535;48.788;9.214;2024-02-21T18:12:25;11.60;86.90
40816;DHT22;26535;48.788;9.214;2024-02-21T18:14:50;11.60;87.10
40816;DHT22;26535;48.788;9.214;2024-02-21T18:17:16;11.60;86.10
40816;DHT22;26535;48.788;9.214;2024-02-21T18:19:42;11.60;86.00
40816;DHT22;26535;48.788;9.214;2024-02-21T18:22:07;11.60;85.60
40816;DHT22;26535;48.788;9.214;2024-02-21T18:24:33;11.60;85.70
40816;DHT22;26535;48.788;9.214;2024-02-21T18:26:59;11.60;85.70
40816;DHT22;26535;48.788;9.214;2024-02-21T18:29:26;11.60;82.70
40816;DHT22;26535;48.788;9.214;2024-02-21T18:31:53;11.70;81.00
40816;DHT22;26535;48.788;9.214;2024-02-21T18:34:19;11.80;79.90
40816;DHT22;26535;48.788;9.214;2024-02-21T18:36:45;11.90;79.60
40816;DHT22;26535;48.788;9.214;2024-02-21T18:39:14;12.00;76.90
40816;DHT22;26535;48.788;9.214;2024-02-21T18:41:40;12.10;75.30
40816;DHT22;26535;48.788;9.214;2024-02-21T18:44:10;12.20;74.90
40816;DHT22;26535;48.788;9.214;2024-02-21T18:46:37;12.30;73.20
40816;DHT22;26535;48.788;9.214;2024-02-21T18:49:05;12.40;72.80
40816;DHT22;26535;48.788;9.214;2024-02-21T18:51:30;12.40;72.10
40816;DHT22;26535;48.788;9.214;2024-02-21T18:53:57;12.50;71.80
40816;DHT22;26535;48.788;9.214;2024-02-21T18:56:23;12.50;71.30
40816;DHT22;26535;48.788;9.214;2024-02-21T18:58:59;12.50;71.50
40816;DHT22;26535;48.788;9.214;2024-02-21T19:01:25;12.60;71.00
40816;DHT22;26535;48.788;9.214;2024-02-21T19:03:51;12.60;71.10
40816;DHT22;26535;48.788;9.214;2024-02-21T19:06:17;12.60;70.90
40816;DHT22;26535;48.788;9.214;2024-02-21T19:08:45;12.60;70.30
40816;DHT22;26535;48.788;9.214;2024-02-21T19:11:11;12.70;69.80
40816;DHT22;26535;48.788;9.214;2024-02-21T19:13:37;12.70;69.80
40816;DHT22;26535;48.788;9.214;2024-02-21T19:16:03;12.70;70.10
40816;DHT22;26535;48.788;9.214;2024-02-21T19:18:29;12.70;69.60
40816;DHT22;26535;48.788;9.214;2024-02-21T19:20:54;12.70;69.60
40816;DHT22;26535;48.788;9.214;2024-02-21T19:23:20;12.70;69.60
40816;DHT22;26535;48.788;9.214;2024-02-21T19:25:46;12.70;69.90
40816;DHT22;26535;48.788;9.214;2024-02-21T19:28:12;12.60;70.20
40816;DHT22;26535;48.788;9.214;2024-02-21T19:30:39;12.60;69.70
40816;DHT22;26535;48.788;9.214;2024-02-21T19:33:05;12.60;70.40
40816;DHT22;26535;48.788;9.214;2024-02-21T19:35:31;12.60;70.20
40816;DHT22;26535;48.788;9.214;2024-02-21T19:37:58;12.60;69.90
40816;DHT22;26535;48.788;9.214;2024-02-21T19:40:30;12.50;70.10
40816;DHT22;26535;48.788;9.214;2024-02-21T19:42:59;12.60;70.30
40816;DHT22;26535;48.788;9.214;2024-02-21T19:45:28;12.60;70.30
40816;DHT22;26535;48.788;9.214;2024-02-21T19:47:54;12.60;70.70
40816;DHT22;26535;48.788;9.214;2024-02-21T19:50:20;12.50;71.10
40816;DHT22;26535;48.788;9.214;2024-02-21T19:52:55;12.50;71.00
40816;DHT22;26535;48.788;9.214;2024-02-21T19:55:21;12.60;70.90
40816;DHT22;26535;48.788;9.214;2024-02-21T19:57:47;12.60;71.20
40816;DHT22;26535;48.788;9.214;2024-02-21T20:00:14;12.60;71.40
40816;DHT22;26535;48.788;9.214;2024-02-21T20:02:40;12.50;71.10
40816;DHT22;26535;48.788;9.214;2024-02-21T20:05:09;12.50;71.20
40816;DHT22;26535;48.788;9.214;2024-02-21T20:07:35;12.50;71.60
40816;DHT22;26535;48.788;9.214;2024-02-21T20:10:03;12.50;71.60
40816;DHT22;26535;48.788;9.214;2024-02-21T20:12:33;12.40;71.80
40816;DHT22;26535;48.788;9.214;2024-02-21T20:14:58;12.40;72.10
40816;DHT22;26535;48.788;9.214;2024-02-21T20:17:26;12.40;72.30
40816;DHT22;26535;48.788;9.214;2024-02-21T20:19:52;12.40;72.50
40816;DHT22;26535;48.788;9.214;2024-02-21T20:22:17;12.40;72.70
40816;DHT22;26535;48.788;9.214;2024-02-21T20:24:43;12.40;72.80
40816;DHT22;26535;48.788;9.214;2024-02-21T20:27:09;12.40;73.00
40816;DHT22;26535;48.788;9.214;2024-02-21T20:29:36;12.40;73.30
40816;DHT22;26535;48.788;9.214;2024-02-21T20:32:02;12.40;73.70
40816;DHT22;26535;48.788;9.214;2024-02-21T20:34:28;12.40;73.80
40816;DHT22;26535;48.788;9.214;2024-02-21T20:36:56;12.30;73.90
40816;DHT22;26535;48.788;9.214;2024-02-21T20:39:22;12.40;74.30
40816;DHT22;26535;48.788;9.214;2024-02-21T20:41:48;12.30;74.60
40816;DHT22;26535;48.788;9.214;2024-02-21T20:44:13;12.30;74.90
40816;DHT22;26535;48.788;9.214;2024-02-21T20:46:39;12.30;74.90
40816;DHT22;26535;48.788;9.214;2024-02-21T20:49:05;12.30;75.30
40816;DHT22;26535;48.788;9.214;2024-02-21T20:51:30;12.20;75.60
40816;DHT22;26535;48.788;9.214;2024-02-21T20:53:56;12.20;75.60
40816;DHT22;26535;48.788;9.214;2024-02-21T20:56:22;12.20;75.80
40816;DHT22;26535;48.788;9.214;2024-02-21T20:58:48;12.20;76.60
40816;DHT22;26535;48.788;9.214;2024-02-21T21:01:14;12.20;75.90
40816;DHT22;26535;48.788;9.214;2024-02-21T21:03:40;12.20;76.10
40816;DHT22;26535;48.788;9.214;2024-02-21T21:06:06;12.20;75.80
40816;DHT22;26535;48.788;9.214;2024-02-21T21:08:32;12.20;75.90
40816;DHT22;26535;48.788;9.214;2024-02-21T21:10:58;12.20;75.80
40816;DHT22;26535;48.788;9.214;2024-02-21T21:13:24;12.20;75.90